Terminal Aerodrome Forecast
Issued by NWS St Louis, MO

Home | Current Version | Previous Version | Text Only | Print | Product List | Glossary On
Versions: 1 2 3 4 5 6 7 8 9 10 11 12 13
311
FTUS43 KLSX 260520
TAFCOU
TAF
KCOU 260520Z 2606/2706 11005KT P6SM SCT250
     FM261300 17004KT P6SM SCT250
     FM261500 24005KT P6SM SCT250
     FM261900 24007KT P6SM BKN050
     FM270200 18004KT P6SM BKN200=

USA.gov is the U.S. government's official web portal to all federal, state and local government web resources and services.